createdAt,value
2022-09-12T00:02:05.858Z,0.22
2022-09-12T00:06:05.618Z,0.22
2022-09-12T00:10:05.562Z,0.22
2022-09-12T00:14:05.865Z,0.22
2022-09-12T00:18:06.099Z,0.22
2022-09-12T00:22:05.865Z,0.22
2022-09-12T00:26:05.503Z,0.22
2022-09-12T00:30:05.826Z,0.22
2022-09-12T00:34:05.400Z,0.22
2022-09-12T00:38:05.777Z,0.22
2022-09-12T00:42:05.188Z,0.22
2022-09-12T00:46:05.800Z,0.22
2022-09-12T00:50:05.498Z,0.22
2022-09-12T00:54:05.941Z,0.22
2022-09-12T00:58:05.838Z,0.22
2022-09-12T01:02:09.048Z,0.22
2022-09-12T01:06:05.683Z,0.22
2022-09-12T01:10:06.006Z,0.22
2022-09-12T01:14:05.398Z,0.22
2022-09-12T01:18:06.011Z,0.22
2022-09-12T01:22:05.714Z,0.22
2022-09-12T01:26:05.051Z,0.22
2022-09-12T01:30:05.830Z,0.22
2022-09-12T01:34:05.968Z,0.22
2022-09-12T01:38:05.616Z,0.22
2022-09-12T01:42:05.551Z,0.22
2022-09-12T01:46:05.686Z,0.22
2022-09-12T01:50:05.749Z,0.22
2022-09-12T01:54:05.314Z,0.22
2022-09-12T01:58:05.274Z,0.22
2022-09-12T02:02:08.781Z,0.22
2022-09-12T02:06:05.814Z,0.22
2022-09-12T02:10:05.937Z,0.22
2022-09-12T02:14:05.156Z,0.22
2022-09-12T02:18:05.715Z,0.22
2022-09-12T02:22:30.221Z,0.22
2022-09-12T02:26:05.883Z,0.22
2022-09-12T02:30:05.861Z,0.22
2022-09-12T02:34:05.485Z,0.22
2022-09-12T02:38:05.515Z,0.22
2022-09-12T02:42:05.797Z,0.22
2022-09-12T02:46:05.995Z,0.22
2022-09-12T02:50:06.087Z,0.22
2022-09-12T02:54:05.926Z,0.22
2022-09-12T02:58:08.281Z,0.22
2022-09-12T03:02:05.936Z,0.22
2022-09-12T03:06:05.272Z,0.22
2022-09-12T03:10:06.065Z,0.22
2022-09-12T03:14:05.672Z,0.22
2022-09-12T03:18:05.325Z,0.22
2022-09-12T03:22:05.599Z,0.22
2022-09-12T03:26:05.218Z,0.22
2022-09-12T03:30:06.023Z,0.22
2022-09-12T03:34:04.897Z,0.22
2022-09-12T03:38:05.560Z,0.22
2022-09-12T03:42:10.191Z,0.22
2022-09-12T03:46:05.937Z,0.22
2022-09-12T03:50:05.202Z,0.22
2022-09-12T03:54:05.539Z,0.22
2022-09-12T03:58:05.275Z,0.22
2022-09-12T04:02:13.014Z,0.22
2022-09-12T04:06:05.107Z,0.22
2022-09-12T04:10:05.282Z,0.22
2022-09-12T04:14:05.981Z,0.22
2022-09-12T04:18:06.257Z,0.22
2022-09-12T04:22:05.405Z,0.22
2022-09-12T04:26:05.620Z,0.22
2022-09-12T04:30:06.017Z,0.22
2022-09-12T04:34:05.114Z,0.22
2022-09-12T04:38:05.095Z,0.22
2022-09-12T04:42:05.883Z,0.22
2022-09-12T04:46:05.703Z,0.22
2022-09-12T04:50:06.160Z,0.22
2022-09-12T04:54:05.754Z,0.22
2022-09-12T04:58:05.589Z,0.22
2022-09-12T05:02:11.977Z,0.22
2022-09-12T05:06:07.928Z,0.22
2022-09-12T05:10:05.900Z,0.22
2022-09-12T05:14:09.385Z,0.22
2022-09-12T05:18:08.915Z,0.22
2022-09-12T05:22:05.909Z,0.22
2022-09-12T05:26:09.564Z,0.22
2022-09-12T05:30:05.900Z,0.22
2022-09-12T05:34:10.245Z,0.22
2022-09-12T05:38:05.793Z,0.22
2022-09-12T05:42:10.963Z,0.22
2022-09-12T05:46:05.507Z,0.22
2022-09-12T05:50:05.930Z,0.22
2022-09-12T05:54:05.861Z,0.22
2022-09-12T05:58:05.213Z,0.22
2022-09-12T06:02:14.574Z,0.22
2022-09-12T06:06:11.280Z,0.22
2022-09-12T06:10:05.824Z,0.22
2022-09-12T06:14:05.252Z,0.22
2022-09-12T06:18:09.811Z,0.22
2022-09-12T06:22:05.470Z,0.22
2022-09-12T06:26:05.723Z,0.22
2022-09-12T06:30:05.486Z,0.22
2022-09-12T06:34:05.276Z,0.22
2022-09-12T06:38:05.453Z,0.22
2022-09-12T06:42:07.148Z,0.23
2022-09-12T06:46:05.856Z,0.23
2022-09-12T06:50:11.696Z,0.22
2022-09-12T06:54:05.552Z,0.23
2022-09-12T06:58:05.361Z,0.22
2022-09-12T07:02:09.722Z,0.22
2022-09-12T07:06:05.683Z,0.23
2022-09-12T07:10:05.104Z,0.23
2022-09-12T07:14:05.658Z,0.23
2022-09-12T07:18:12.171Z,0.25
2022-09-12T07:22:09.947Z,0.25
2022-09-12T07:26:05.836Z,0.25
2022-09-12T07:30:34.451Z,0.23
2022-09-12T07:34:06.260Z,0.23
2022-09-12T07:38:05.097Z,0.23
2022-09-12T07:42:05.745Z,0.25
2022-09-12T07:46:05.058Z,0.23
2022-09-12T07:50:05.908Z,0.25
2022-09-12T07:54:05.698Z,0.23
2022-09-12T07:58:11.834Z,0.22
2022-09-12T08:02:08.601Z,0.22
2022-09-12T08:06:05.774Z,0.22
2022-09-12T08:10:06.089Z,0.22
2022-09-12T08:14:07.637Z,0.23
2022-09-12T08:18:05.585Z,0.22
2022-09-12T08:22:09.583Z,0.22
2022-09-12T08:26:06.483Z,0.22
2022-09-12T08:30:05.014Z,0.22
2022-09-12T08:34:05.645Z,0.22
2022-09-12T08:38:05.905Z,0.23
2022-09-12T08:42:06.158Z,0.22
2022-09-12T08:46:05.708Z,0.22
2022-09-12T08:50:05.784Z,0.2
2022-09-12T08:54:05.946Z,0.14
2022-09-12T08:58:11.016Z,0.13
2022-09-12T09:02:09.132Z,0.13
2022-09-12T09:06:09.880Z,0.11
2022-09-12T09:10:05.575Z,0.13
2022-09-12T09:14:05.620Z,0.11
2022-09-12T09:18:05.316Z,0.11
2022-09-12T09:22:06.247Z,0.11
2022-09-12T09:26:08.177Z,0.11
2022-09-12T09:30:05.732Z,0.11
2022-09-12T09:34:05.072Z,0.11
2022-09-12T09:38:10.011Z,0.13
2022-09-12T09:42:05.806Z,0.13
2022-09-12T09:46:10.520Z,0.11
2022-09-12T09:50:06.130Z,0.11
2022-09-12T09:54:05.508Z,0.13
2022-09-12T09:58:05.207Z,0.11
2022-09-12T10:02:13.096Z,0.11
2022-09-12T10:06:11.227Z,0.13
2022-09-12T10:10:05.438Z,0.13
2022-09-12T10:14:06.116Z,0.13
2022-09-12T10:18:08.398Z,0.14
2022-09-12T10:22:26.575Z,0.14
2022-09-12T10:26:05.994Z,0.14
2022-09-12T10:30:05.797Z,0.15
2022-09-12T10:34:12.040Z,0.13
2022-09-12T10:38:05.560Z,0.13
2022-09-12T10:42:05.607Z,0.11
2022-09-12T10:46:05.335Z,0.13
2022-09-12T10:50:22.148Z,0.14
2022-09-12T10:54:08.855Z,0.14
2022-09-12T10:58:05.501Z,0.13
2022-09-12T11:02:09.369Z,0.11
2022-09-12T11:06:08.144Z,0.13
2022-09-12T11:10:06.164Z,0.11
2022-09-12T11:14:05.524Z,0.11
2022-09-12T11:18:09.870Z,0.11
2022-09-12T11:22:05.664Z,0.1
2022-09-12T11:26:05.334Z,0.11
2022-09-12T11:30:06.079Z,0.11
2022-09-12T11:34:08.244Z,0.13
2022-09-12T11:38:08.788Z,0.13
2022-09-12T11:42:05.828Z,0.11
2022-09-12T11:46:10.250Z,0.1
2022-09-12T11:50:09.392Z,0.1
2022-09-12T11:54:05.790Z,0.11
2022-09-12T11:58:05.650Z,0.11
2022-09-12T12:02:17.896Z,0.11
2022-09-12T12:06:05.447Z,0.1
2022-09-12T12:10:05.972Z,0.13
2022-09-12T12:14:10.447Z,0.13
2022-09-12T12:18:06.180Z,0.11
2022-09-12T12:22:11.338Z,0.14
2022-09-12T12:26:08.543Z,0.14
2022-09-12T12:30:07.018Z,0.13
2022-09-12T12:34:05.496Z,0.15
2022-09-12T12:38:05.541Z,0.14
2022-09-12T12:42:05.722Z,0.14
2022-09-12T12:46:06.162Z,0.13
2022-09-12T12:50:11.311Z,0.14
2022-09-12T12:54:07.788Z,0.15
2022-09-12T12:58:05.555Z,0.17
2022-09-12T13:02:16.939Z,0.15
2022-09-12T13:06:05.724Z,0.15
2022-09-12T13:10:05.844Z,0.17
2022-09-12T13:14:05.623Z,0.17
2022-09-12T13:18:06.051Z,0.17
2022-09-12T13:22:31.399Z,0.15
2022-09-12T13:26:05.377Z,0.15
2022-09-12T13:30:05.386Z,0.13
2022-09-12T13:34:05.869Z,0.13
2022-09-12T13:38:05.594Z,0.13
2022-09-12T13:42:05.902Z,0.15
2022-09-12T13:46:05.576Z,0.15
2022-09-12T13:50:05.895Z,0.15
2022-09-12T13:54:05.237Z,0.15
2022-09-12T13:58:05.248Z,0.17
2022-09-12T14:02:08.733Z,0.15
2022-09-12T14:06:05.583Z,0.15
2022-09-12T14:10:10.358Z,0.17
2022-09-12T14:14:05.746Z,0.17
2022-09-12T14:18:08.884Z,0.17
2022-09-12T14:22:05.352Z,0.15
2022-09-12T14:26:05.072Z,0.17
2022-09-12T14:30:05.588Z,0.15
2022-09-12T14:34:05.642Z,0.17
2022-09-12T14:38:05.514Z,0.17
2022-09-12T14:42:05.621Z,0.18
2022-09-12T14:46:05.581Z,0.18
2022-09-12T14:50:09.400Z,0.18
2022-09-12T14:54:05.373Z,0.18
2022-09-12T14:58:05.547Z,0.2
2022-09-12T15:02:05.960Z,0.22
2022-09-12T15:06:05.918Z,0.2
2022-09-12T15:10:09.930Z,0.2
2022-09-12T15:14:05.429Z,0.2
2022-09-12T15:18:06.726Z,0.25
2022-09-12T15:22:05.179Z,0.27
2022-09-12T15:26:05.712Z,0.27
2022-09-12T15:30:05.696Z,0.28
2022-09-12T15:34:05.444Z,0.28
2022-09-12T15:38:05.416Z,0.27
2022-09-12T15:42:06.244Z,0.28
2022-09-12T15:46:10.191Z,0.28
2022-09-12T15:50:05.974Z,0.28
2022-09-12T15:54:05.428Z,0.28
2022-09-12T15:58:07.384Z,0.28
2022-09-12T16:02:10.564Z,0.27
2022-09-12T16:06:05.365Z,0.27
2022-09-12T16:10:12.294Z,0.27
2022-09-12T16:14:05.467Z,0.27
2022-09-12T16:18:05.598Z,0.27
2022-09-12T16:22:11.303Z,0.28
2022-09-12T16:26:05.434Z,0.28
2022-09-12T16:30:06.113Z,0.27
2022-09-12T16:34:05.605Z,0.27
2022-09-12T16:38:05.685Z,0.27
2022-09-12T16:42:05.905Z,0.27
2022-09-12T16:46:05.686Z,0.27
2022-09-12T16:50:11.007Z,0.27
2022-09-12T16:54:05.823Z,0.27
2022-09-12T16:58:05.605Z,0.27
2022-09-12T17:02:10.486Z,0.27
2022-09-12T17:06:05.596Z,0.27
2022-09-12T17:10:10.430Z,0.27
2022-09-12T17:14:36.882Z,0.27
2022-09-12T17:18:11.043Z,0.25
2022-09-12T17:22:05.443Z,0.25
2022-09-12T17:26:05.472Z,0.25
2022-09-12T17:30:05.827Z,0.25
2022-09-12T17:34:10.338Z,0.25
2022-09-12T17:38:05.558Z,0.25
2022-09-12T17:42:37.218Z,0.25
2022-09-12T17:46:05.725Z,0.25
2022-09-12T17:50:31.730Z,0.25
2022-09-12T17:54:05.955Z,0.25
2022-09-12T17:58:05.140Z,0.25
2022-09-12T18:02:09.278Z,0.25
2022-09-12T18:06:05.688Z,0.27
2022-09-12T18:10:05.695Z,0.25
2022-09-12T18:14:05.498Z,0.25
2022-09-12T18:18:05.845Z,0.27
2022-09-12T18:22:05.075Z,0.27
2022-09-12T18:26:05.503Z,0.27
2022-09-12T18:30:39.959Z,0.28
2022-09-12T18:34:09.124Z,0.27
2022-09-12T18:38:05.611Z,0.28
2022-09-12T18:42:05.887Z,0.28
2022-09-12T18:46:05.031Z,0.28
2022-09-12T18:50:06.009Z,0.28
2022-09-12T18:54:07.677Z,0.28
2022-09-12T18:58:04.972Z,0.28
2022-09-12T19:02:16.885Z,0.28
2022-09-12T19:06:05.163Z,0.28
2022-09-12T19:10:05.461Z,0.28
2022-09-12T19:14:05.546Z,0.28
2022-09-12T19:18:05.514Z,0.28
2022-09-12T19:22:05.568Z,0.28
2022-09-12T19:26:05.740Z,0.3
2022-09-12T19:30:05.539Z,0.28
2022-09-12T19:34:05.613Z,0.28
2022-09-12T19:38:33.479Z,0.28
2022-09-12T19:42:11.448Z,0.28
2022-09-12T19:46:05.955Z,0.28
2022-09-12T19:50:05.524Z,0.28
2022-09-12T19:54:09.972Z,0.28
2022-09-12T19:58:05.245Z,0.28
2022-09-12T20:02:07.776Z,0.28
2022-09-12T20:06:05.723Z,0.28
2022-09-12T20:10:05.551Z,0.28
2022-09-12T20:14:05.862Z,0.28
2022-09-12T20:18:05.165Z,0.28
2022-09-12T20:22:06.223Z,0.28
2022-09-12T20:26:05.704Z,0.28
2022-09-12T20:30:05.546Z,0.28
2022-09-12T20:34:05.286Z,0.28
2022-09-12T20:38:05.548Z,0.28
2022-09-12T20:42:05.420Z,0.28
2022-09-12T20:46:05.128Z,0.28
2022-09-12T20:50:05.143Z,0.28
2022-09-12T20:54:08.846Z,0.28
2022-09-12T20:58:05.690Z,0.27
2022-09-12T21:02:05.987Z,0.28
2022-09-12T21:06:07.815Z,0.27
2022-09-12T21:10:05.143Z,0.27
2022-09-12T21:14:05.546Z,0.27
2022-09-12T21:18:06.187Z,0.27
2022-09-12T21:22:05.885Z,0.27
2022-09-12T21:26:14.970Z,0.27
2022-09-12T21:30:05.853Z,0.27
2022-09-12T21:34:06.883Z,0.27
2022-09-12T21:38:05.752Z,0.27
2022-09-12T21:42:05.458Z,0.27
2022-09-12T21:46:05.087Z,0.27
2022-09-12T21:50:05.119Z,0.27
2022-09-12T21:54:05.120Z,0.27
2022-09-12T21:58:05.702Z,0.27
2022-09-12T22:02:15.725Z,0.27
2022-09-12T22:06:05.438Z,0.27
2022-09-12T22:10:04.935Z,0.27
2022-09-12T22:14:05.559Z,0.27
2022-09-12T22:18:06.385Z,0.27
2022-09-12T22:22:05.200Z,0.25
2022-09-12T22:26:05.042Z,0.25
2022-09-12T22:30:06.429Z,0.25
2022-09-12T22:34:05.797Z,0.25
2022-09-12T22:38:11.792Z,0.25
2022-09-12T22:42:06.029Z,0.25
2022-09-12T22:46:05.835Z,0.25
2022-09-12T22:50:11.109Z,0.25
2022-09-12T22:54:05.491Z,0.25
2022-09-12T22:58:05.853Z,0.25
2022-09-12T23:02:08.347Z,0.25
2022-09-12T23:06:05.400Z,0.25
2022-09-12T23:10:09.392Z,0.25
2022-09-12T23:14:05.632Z,0.25
2022-09-12T23:18:08.892Z,0.25
2022-09-12T23:22:05.794Z,0.25
2022-09-12T23:26:05.333Z,0.25
2022-09-12T23:30:05.077Z,0.25
2022-09-12T23:34:05.171Z,0.25
2022-09-12T23:38:05.506Z,0.25
2022-09-12T23:42:06.414Z,0.25
2022-09-12T23:46:05.182Z,0.25
2022-09-12T23:50:05.718Z,0.25
2022-09-12T23:54:08.226Z,0.25
2022-09-12T23:58:05.319Z,0.25
